Time;durP1;ratioP1;P1;durP2;ratioP2;P2;SDS_P1;SDS_P2;PMS_P1;PMS_P2;Temp;Humidity;BMP_temperature;BMP_pressure;BME280_temperature;BME280_humidity;BME280_pressure;Samples;Min_cycle;Max_cycle;Signal;HPM_P1;HPM_P2
2022/05/25 00:01:10;;;;;;;18.10;14.90;;;;;;;16.35;83.96;97945.70;106310;1277;138221;-82
2022/05/25 00:03:38;;;;;;;18.30;15.10;;;;;;;16.35;84.12;97939.45;106089;1278;31739;-82
2022/05/25 00:06:07;;;;;;;15.60;13.90;;;;;;;16.33;84.08;97938.31;106287;1277;141144;-82
2022/05/25 00:08:34;;;;;;;20.50;15.20;;;;;;;16.34;84.74;97943.29;106185;1276;24552;-82
2022/05/25 00:11:03;;;;;;;18.80;16.50;;;;;;;16.34;84.49;97938.07;106488;1277;24324;-82
2022/05/25 00:13:31;;;;;;;17.40;15.50;;;;;;;16.32;84.84;97937.73;106680;1277;138431;-84
2022/05/25 00:15:58;;;;;;;19.40;15.50;;;;;;;16.31;84.77;97940.58;106317;1277;22556;-83
2022/05/25 00:18:25;;;;;;;17.60;15.00;;;;;;;16.32;84.70;97949.82;106091;1277;138913;-84
2022/05/25 00:20:52;;;;;;;18.90;15.50;;;;;;;16.33;84.83;97955.41;106398;1277;22538;-83
2022/05/25 00:23:19;;;;;;;19.50;15.50;;;;;;;16.35;85.04;97957.08;106119;1277;25340;-84
2022/05/25 00:25:46;;;;;;;19.70;17.00;;;;;;;16.32;84.64;97962.50;106020;1277;138138;-83
2022/05/25 00:28:16;;;;;;;19.00;16.00;;;;;;;16.25;84.55;97968.75;106274;1277;22551;-83
2022/05/25 00:30:46;;;;;;;16.60;14.50;;;;;;;16.13;84.74;97970.49;106313;1277;138657;-83
2022/05/25 00:33:13;;;;;;;16.50;14.80;;;;;;;16.05;84.94;97969.11;106089;1278;26657;-84
2022/05/25 00:35:41;;;;;;;21.30;16.20;;;;;;;15.98;85.18;97965.52;106379;1277;22573;-83
2022/05/25 00:38:08;;;;;;;17.70;15.80;;;;;;;15.95;85.61;97966.64;106434;1277;137979;-84
2022/05/25 00:40:40;;;;;;;20.10;16.80;;;;;;;15.91;85.81;97968.92;106279;1277;22538;-84
2022/05/25 00:43:08;;;;;;;18.40;16.40;;;;;;;15.88;86.05;97974.19;106003;1277;138140;-84
2022/05/25 00:45:39;;;;;;;18.90;15.40;;;;;;;15.83;86.02;97980.39;106087;1278;22553;-83
2022/05/25 00:48:08;;;;;;;19.20;16.00;;;;;;;15.83;86.48;97982.64;106450;1277;138536;-81
2022/05/25 00:53:19;;;;;;;21.10;17.50;;;;;;;16.00;86.98;97980.60;106144;1277;22550;-82
2022/05/25 00:55:50;;;;;;;23.40;19.70;;;;;;;16.08;86.79;97982.53;106602;1277;138294;-82
2022/05/25 00:58:17;;;;;;;23.30;20.20;;;;;;;16.14;86.59;97983.33;106901;1276;23766;-82
2022/05/25 01:00:44;;;;;;;23.20;19.20;;;;;;;16.18;86.23;97986.92;106124;1277;137889;-82
2022/05/25 01:03:13;;;;;;;20.50;18.30;;;;;;;16.15;85.68;97987.27;106449;1277;22561;-83
2022/05/25 01:05:54;;;;;;;22.00;18.30;;;;;;;16.13;85.88;97986.48;106931;1276;23919;-82
2022/05/25 01:08:27;;;;;;;21.80;19.40;;;;;;;16.16;85.89;97985.84;106687;1277;138323;-83
2022/05/25 01:11:11;;;;;;;25.10;19.50;;;;;;;16.21;85.97;97984.14;106626;1277;22542;-83
2022/05/25 01:14:01;;;;;;;23.10;20.60;;;;;;;16.25;85.96;97984.90;106289;1277;137566;-82
2022/05/25 01:16:48;;;;;;;29.20;20.00;;;;;;;16.24;85.28;97988.10;106485;1277;22560;-83
2022/05/25 01:19:39;;;;;;;25.60;20.70;;;;;;;16.15;84.97;97996.57;106386;1278;138836;-82
2022/05/25 01:22:34;;;;;;;22.60;18.30;;;;;;;16.09;85.67;98001.08;106359;1277;22846;-82
2022/05/25 01:25:26;;;;;;;26.00;20.00;;;;;;;16.14;86.06;98000.04;106648;1277;138209;-83
2022/05/25 01:27:54;;;;;;;26.70;21.50;;;;;;;16.16;86.01;97998.91;106333;1276;22560;-82
2022/05/25 01:30:27;;;;;;;25.10;20.70;;;;;;;16.17;85.89;98001.16;106564;1276;137628;-82
2022/05/25 01:33:12;;;;;;;26.40;21.40;;;;;;;16.11;85.50;98003.25;106293;1278;22560;-82
2022/05/25 01:35:45;;;;;;;23.70;20.10;;;;;;;16.08;85.75;97999.67;107129;1277;31435;-82
2022/05/25 01:38:26;;;;;;;23.40;20.40;;;;;;;16.04;85.57;98006.86;106199;1277;138528;-83
2022/05/25 01:41:29;;;;;;;22.80;19.20;;;;;;;16.03;85.83;98013.13;106746;1277;22666;-82
2022/05/25 01:44:01;;;;;;;22.40;19.00;;;;;;;16.02;85.91;98014.18;106366;1276;137838;-83
2022/05/25 01:46:32;;;;;;;26.20;22.60;;;;;;;15.96;85.76;98016.77;106633;1277;22586;-82
2022/05/25 01:49:08;;;;;;;26.00;20.90;;;;;;;15.91;86.07;98015.23;106382;1277;138246;-83
2022/05/25 01:51:50;;;;;;;23.70;19.90;;;;;;;15.90;86.52;98016.23;107004;1276;23085;-83
2022/05/25 01:54:22;;;;;;;23.50;19.40;;;;;;;15.91;86.27;98017.64;106665;1276;138798;-82
2022/05/25 01:56:53;;;;;;;23.10;19.80;;;;;;;15.88;86.35;98019.98;106413;1277;22591;-82
2022/05/25 01:59:21;;;;;;;24.70;20.70;;;;;;;15.85;86.52;98017.55;106351;1277;22569;-82
2022/05/25 02:04:45;;;;;;;25.70;22.20;;;;;;;15.90;86.90;98012.99;106393;1277;22573;-81
2022/05/25 02:07:28;;;;;;;27.30;21.50;;;;;;;15.90;86.85;98014.20;106274;1277;137933;-82
2022/05/25 02:10:07;;;;;;;23.90;20.00;;;;;;;15.91;86.78;98016.11;106542;1277;22607;-82
2022/05/25 02:12:48;;;;;;;;;;;;;;;15.91;86.42;98011.16;106428;1277;138435;-82
2022/05/25 02:15:35;;;;;;;23.70;20.40;;;;;;;15.89;86.64;98013.60;106555;1277;24399;-83
2022/05/25 02:18:17;;;;;;;24.20;21.70;;;;;;;15.88;86.88;98014.94;106566;1275;138830;-82
2022/05/25 02:21:18;;;;;;;28.10;23.30;;;;;;;15.90;86.91;98016.78;106057;1283;22544;-82
2022/05/25 02:24:15;;;;;;;26.20;21.40;;;;;;;15.91;87.05;98015.61;105983;1283;25634;-82
2022/05/25 02:26:55;;;;;;;25.40;21.00;;;;;;;15.95;87.13;98016.84;106523;1281;138267;-82
2022/05/25 02:29:35;;;;;;;24.80;20.30;;;;;;;15.96;87.01;98013.42;106050;1283;22560;-82
2022/05/25 02:32:17;;;;;;;24.90;21.30;;;;;;;16.03;87.06;98016.43;106155;1281;138778;-82
2022/05/25 02:34:50;;;;;;;29.70;23.00;;;;;;;16.08;86.85;98015.71;106299;1281;24278;-82
2022/05/25 02:37:22;;;;;;;27.10;20.40;;;;;;;16.09;86.65;98016.07;105890;1283;138086;-82
2022/05/25 02:39:53;;;;;;;24.00;21.40;;;;;;;16.09;86.33;98010.91;106111;1281;22609;-81
2022/05/25 02:42:21;;;;;;;26.60;20.40;;;;;;;16.10;86.49;98011.84;106046;1281;138717;-82
2022/05/25 02:44:49;;;;;;;24.30;21.60;;;;;;;16.13;86.36;98012.95;106453;1281;22766;-83
2022/05/25 02:47:30;;;;;;;27.50;21.70;;;;;;;16.13;86.19;98019.06;106148;1281;30696;-81
2022/05/25 02:49:57;;;;;;;26.60;23.20;;;;;;;16.14;86.26;98018.11;105927;1283;137516;-81
2022/05/25 02:52:24;;;;;;;27.60;22.50;;;;;;;16.16;86.29;98015.62;106026;1278;22817;-81
2022/05/25 02:54:53;;;;;;;;;;;;;;;16.19;86.32;98015.33;106284;1277;138330;-82
2022/05/25 02:57:34;;;;;;;25.50;20.00;;;;;;;16.21;86.15;98014.91;106401;1277;30204;-82
2022/05/25 03:00:03;;;;;;;23.90;20.00;;;;;;;16.23;85.83;98021.75;106519;1277;22574;-81
2022/05/25 03:02:30;;;;;;;24.70;21.60;;;;;;;16.21;85.50;98017.59;106361;1277;138424;-82
2022/05/25 03:04:57;;;;;;;26.10;22.20;;;;;;;16.15;85.41;98013.55;106632;1276;22574;-82
2022/05/25 03:07:27;;;;;;;26.10;21.50;;;;;;;16.14;85.72;98014.42;106243;1277;137561;-82
2022/05/25 03:09:53;;;;;;;;;;;;;;;16.13;85.84;98013.29;106478;1277;22531;-82
2022/05/25 03:12:20;;;;;;;22.60;19.60;;;;;;;16.12;85.56;98008.41;106233;1277;124699;-82
2022/05/25 03:14:47;;;;;;;23.90;19.70;;;;;;;16.13;85.80;98006.98;106362;1277;23026;-83
2022/05/25 03:17:15;;;;;;;22.70;20.20;;;;;;;16.14;85.81;98005.86;106667;1277;22562;-82
2022/05/25 03:19:49;;;;;;;24.50;21.80;;;;;;;16.16;85.80;98003.31;106311;1276;138048;-83
2022/05/25 03:22:16;;;;;;;24.50;21.50;;;;;;;16.17;86.05;98004.75;106383;1276;22540;-81
2022/05/25 03:24:43;;;;;;;24.20;20.20;;;;;;;16.19;85.96;98006.25;106466;1277;138345;-83
2022/05/25 03:27:12;;;;;;;24.20;19.70;;;;;;;16.21;85.73;98000.18;106757;1276;24257;-81
2022/05/25 03:29:40;;;;;;;25.20;20.40;;;;;;;16.22;85.76;98005.22;106280;1277;25598;-81
2022/05/25 03:32:20;;;;;;;25.80;21.60;;;;;;;16.23;85.81;98004.87;106539;1277;137631;-81
2022/05/25 03:34:48;;;;;;;29.00;23.60;;;;;;;16.25;85.94;98010.02;106683;1277;22541;-81
2022/05/25 03:37:16;;;;;;;27.70;22.60;;;;;;;16.22;85.87;98010.54;106512;1276;137531;-81
2022/05/25 03:39:43;;;;;;;27.20;21.00;;;;;;;16.20;85.81;98015.02;106516;1279;22588;-81
2022/05/25 03:42:14;;;;;;;25.00;19.60;;;;;;;16.15;85.79;98023.27;106245;1276;25068;-82
2022/05/25 03:44:42;;;;;;;25.90;21.20;;;;;;;16.05;85.87;98030.35;106378;1277;138631;-81
2022/05/25 03:47:09;;;;;;;26.10;21.10;;;;;;;15.97;86.44;98027.15;106415;1276;23069;-81
2022/05/25 03:49:36;;;;;;;25.60;20.70;;;;;;;15.94;86.69;98030.52;106421;1277;137856;-81
2022/05/25 03:52:04;;;;;;;27.50;24.00;;;;;;;15.94;86.80;98031.84;106585;1277;22541;-81
2022/05/25 03:54:32;;;;;;;29.20;22.30;;;;;;;15.91;86.83;98035.17;106443;1275;137787;-81
2022/05/25 03:56:59;;;;;;;26.10;21.30;;;;;;;15.92;87.11;98033.35;106638;1276;22571;-81
2022/05/25 03:59:26;;;;;;;24.90;21.50;;;;;;;15.97;87.36;98035.44;106636;1276;24353;-81
2022/05/25 04:01:53;;;;;;;26.20;21.10;;;;;;;16.07;87.76;98038.06;106392;1277;138187;-81
2022/05/25 04:04:20;;;;;;;26.20;21.80;;;;;;;16.16;87.72;98033.64;106192;1276;22564;-81
2022/05/25 04:06:47;;;;;;;29.50;23.80;;;;;;;16.22;86.92;98036.37;106676;1276;137744;-81
2022/05/25 04:09:14;;;;;;;29.20;23.80;;;;;;;16.23;86.78;98033.95;106571;1277;22870;-81
2022/05/25 04:11:57;;;;;;;24.20;21.10;;;;;;;16.22;86.81;98029.85;106592;1277;26149;-81
2022/05/25 04:14:24;;;;;;;;;;;;;;;16.23;86.68;98032.52;106347;1278;138170;-83
2022/05/25 04:16:51;;;;;;;23.60;19.50;;;;;;;16.24;86.77;98033.66;106381;1277;24322;-83
2022/05/25 04:19:18;;;;;;;25.30;19.80;;;;;;;16.26;86.86;98035.89;106253;1279;138452;-81
2022/05/25 04:21:45;;;;;;;24.60;21.50;;;;;;;16.30;86.87;98041.11;106391;1276;22599;-81
2022/05/25 04:24:12;;;;;;;27.20;22.60;;;;;;;16.37;87.20;98039.05;106436;1277;25357;-81
2022/05/25 04:26:40;;;;;;;27.60;22.70;;;;;;;16.43;87.00;98036.17;106460;1276;137893;-81
2022/05/25 04:29:07;;;;;;;24.80;20.10;;;;;;;16.48;86.73;98033.81;107032;1277;25030;-81
2022/05/25 04:31:34;;;;;;;25.00;20.40;;;;;;;16.51;86.38;98030.31;106425;1277;138397;-81
2022/05/25 04:34:15;;;;;;;22.30;18.70;;;;;;;16.56;86.24;98035.20;106852;1277;22615;-80
2022/05/25 04:36:44;;;;;;;24.50;20.70;;;;;;;16.59;86.22;98028.94;106378;1277;137996;-81
2022/05/25 04:39:25;;;;;;;26.40;20.30;;;;;;;16.62;86.32;98020.45;106366;1277;24387;-81
2022/05/25 04:42:05;;;;;;;24.70;18.90;;;;;;;16.66;86.18;98020.10;106983;1277;22568;-81
2022/05/25 04:44:32;;;;;;;24.00;20.30;;;;;;;16.70;86.34;98023.25;106384;1277;138611;-81
2022/05/25 04:47:13;;;;;;;24.80;22.00;;;;;;;16.77;86.49;98022.77;106951;1276;23213;-81
2022/05/25 04:49:44;;;;;;;27.90;23.20;;;;;;;16.83;86.38;98021.54;106166;1277;138018;-82
2022/05/25 04:52:11;;;;;;;25.20;22.40;;;;;;;16.90;86.37;98019.97;106275;1277;25451;-81
2022/05/25 04:54:38;;;;;;;23.40;20.80;;;;;;;16.95;86.27;98025.52;106547;1276;138508;-82
2022/05/25 05:00:03;;;;;;;24.90;20.90;;;;;;;16.99;86.03;98033.17;106308;1277;30234;-81
2022/05/25 05:02:45;;;;;;;24.80;22.30;;;;;;;16.97;85.60;98033.52;106612;1276;138186;-82
2022/05/25 05:05:14;;;;;;;26.00;22.40;;;;;;;16.94;85.61;98028.94;106420;1277;22691;-81
2022/05/25 05:07:42;;;;;;;23.20;20.40;;;;;;;16.92;85.57;98028.86;107058;1277;138943;-82
2022/05/25 05:10:09;;;;;;;23.10;19.60;;;;;;;16.90;85.35;98029.86;106352;1277;24425;-82
2022/05/25 05:12:50;;;;;;;25.90;21.20;;;;;;;16.90;85.55;98033.56;106395;1277;138157;-82
2022/05/25 05:15:21;;;;;;;29.10;22.20;;;;;;;16.92;85.73;98032.75;106441;1277;26507;-81
2022/05/25 05:17:55;;;;;;;27.20;22.90;;;;;;;16.92;85.79;98033.25;106483;1277;23060;-82
2022/05/25 05:20:35;;;;;;;27.50;21.00;;;;;;;16.96;86.01;98039.59;106415;1277;137969;-82
2022/05/25 05:23:02;;;;;;;24.10;20.80;;;;;;;16.98;85.83;98039.50;106525;1276;22537;-81
2022/05/25 05:25:29;;;;;;;25.30;20.40;;;;;;;16.96;85.55;98042.02;106259;1276;138202;-81
2022/05/25 05:28:08;;;;;;;28.30;22.50;;;;;;;16.92;85.32;98041.23;106181;1277;22836;-81
2022/05/25 05:30:48;;;;;;;30.50;22.50;;;;;;;16.87;85.38;98036.17;106170;1277;137630;-80
2022/05/25 05:33:16;;;;;;;29.50;23.10;;;;;;;16.84;85.52;98034.02;106710;1277;22572;-82
2022/05/25 05:35:49;;;;;;;27.70;21.10;;;;;;;16.82;85.77;98037.38;106421;1277;25397;-82
2022/05/25 05:38:19;;;;;;;25.70;21.40;;;;;;;16.81;85.71;98037.13;106586;1277;138132;-82
2022/05/25 05:41:00;;;;;;;28.60;22.90;;;;;;;16.80;85.87;98035.16;106956;1277;30516;-82
2022/05/25 05:43:27;;;;;;;28.70;23.80;;;;;;;16.79;85.92;98033.24;106576;1277;138126;-81
2022/05/25 05:45:55;;;;;;;27.10;23.20;;;;;;;16.78;85.89;98033.30;106686;1277;25303;-81
2022/05/25 05:48:28;;;;;;;28.40;23.60;;;;;;;16.77;86.17;98031.17;106419;1277;23946;-80
2022/05/25 05:50:56;;;;;;;27.60;21.70;;;;;;;16.77;86.15;98033.37;106627;1276;138060;-81
2022/05/25 05:53:40;;;;;;;25.00;21.30;;;;;;;16.77;86.17;98034.15;106335;1276;22701;-81
2022/05/25 05:56:08;;;;;;;28.30;21.20;;;;;;;16.78;86.39;98026.66;106667;1277;138068;-81
2022/05/25 05:58:37;;;;;;;26.30;22.70;;;;;;;16.82;86.32;98026.49;106806;1276;22651;-81
2022/05/25 06:01:06;;;;;;;29.60;24.20;;;;;;;16.84;86.43;98021.42;106240;1277;138236;-77
2022/05/25 06:03:33;;;;;;;27.20;22.20;;;;;;;16.87;86.40;98014.13;106563;1277;22534;-77
2022/05/25 06:06:00;;;;;;;27.50;23.20;;;;;;;16.89;86.41;98012.39;106031;1277;25061;-79
2022/05/25 06:08:29;;;;;;;29.40;22.70;;;;;;;16.91;86.51;98007.14;106718;1277;138279;-80
2022/05/25 06:10:57;;;;;;;23.80;21.10;;;;;;;16.94;86.76;98003.14;106474;1277;22624;-79
2022/05/25 06:13:38;;;;;;;30.90;24.70;;;;;;;17.00;86.93;98006.91;106049;1277;137737;-79
2022/05/25 06:21:28;;;;;;;29.80;24.50;;;;;;;17.13;86.82;98025.69;106128;1277;22720;-80
2022/05/25 06:23:57;;;;;;;27.70;21.50;;;;;;;17.20;86.79;98028.83;106349;1277;25252;-80
2022/05/25 06:26:30;;;;;;;27.30;23.10;;;;;;;17.27;86.57;98035.05;106135;1277;137947;-80
2022/05/25 06:29:02;;;;;;;33.70;25.70;;;;;;;17.31;86.54;98038.07;107181;1277;24183;-80
2022/05/25 06:31:32;;;;;;;31.80;24.70;;;;;;;17.34;86.14;98035.94;107273;1276;137611;-80
2022/05/25 06:34:00;;;;;;;28.40;23.80;;;;;;;17.38;86.23;98037.30;107094;1276;22553;-80
2022/05/25 06:36:29;;;;;;;31.50;24.70;;;;;;;17.44;86.25;98029.55;106968;1277;25219;-80
2022/05/25 06:39:02;;;;;;;24.80;21.60;;;;;;;17.56;86.28;98033.20;106867;1276;137912;-80
2022/05/25 06:41:29;;;;;;;30.50;23.90;;;;;;;17.70;85.94;98034.89;106624;1276;22569;-80
2022/05/25 06:43:57;;;;;;;31.00;24.20;;;;;;;17.82;85.53;98030.83;106328;1277;137836;-80
2022/05/25 06:46:24;;;;;;;28.20;24.20;;;;;;;17.94;85.23;98028.87;106021;1277;22553;-80
2022/05/25 06:49:05;;;;;;;33.90;24.90;;;;;;;18.05;84.96;98023.69;106561;1277;138494;-79
2022/05/25 06:51:34;;;;;;;29.70;22.90;;;;;;;18.11;84.38;98022.98;106651;1277;24325;-81
2022/05/25 06:54:05;;;;;;;30.50;22.40;;;;;;;18.16;84.30;98017.05;106688;1277;22617;-81
2022/05/25 06:56:34;;;;;;;29.70;23.20;;;;;;;18.24;84.40;98018.16;106395;1277;137854;-81
2022/05/25 06:59:02;;;;;;;29.60;24.20;;;;;;;18.35;84.38;98015.78;106441;1277;24295;-81
2022/05/25 07:01:32;;;;;;;30.40;24.50;;;;;;;18.49;83.87;98013.07;106244;1277;137658;-81
2022/05/25 07:04:00;;;;;;;27.50;23.00;;;;;;;18.62;83.57;98019.52;106526;1278;23502;-81
2022/05/25 07:06:27;;;;;;;25.90;22.50;;;;;;;18.75;82.65;98023.38;106737;1277;26174;-81
2022/05/25 07:09:09;;;;;;;27.30;22.80;;;;;;;18.93;82.46;98019.04;106198;1279;138076;-80
2022/05/25 07:11:38;;;;;;;26.50;23.00;;;;;;;19.07;81.62;98026.33;106613;1277;22627;-81
2022/05/25 07:14:19;;;;;;;25.30;22.40;;;;;;;19.19;80.71;98028.15;106246;1277;138264;-81
2022/05/25 07:16:47;;;;;;;27.90;24.60;;;;;;;19.30;80.56;98035.13;106542;1277;23442;-81
2022/05/25 07:19:14;;;;;;;26.70;23.00;;;;;;;19.41;80.68;98033.72;106200;1280;138569;-81
2022/05/25 07:21:55;;;;;;;30.30;22.30;;;;;;;19.55;79.97;98038.23;106503;1279;23009;-81
2022/05/25 07:24:22;;;;;;;29.40;20.70;;;;;;;19.63;79.00;98035.87;106114;1278;24849;-80
2022/05/25 07:26:50;;;;;;;29.70;21.00;;;;;;;19.64;78.19;98039.88;106322;1279;137856;-81
2022/05/25 07:29:17;;;;;;;29.30;22.40;;;;;;;19.63;78.04;98035.20;107257;1278;23028;-81
2022/05/25 07:31:55;;;;;;;31.50;21.50;;;;;;;19.65;77.32;98027.31;106050;1279;137868;-81
2022/05/25 07:34:49;;;;;;;25.60;21.20;;;;;;;19.70;76.91;98029.73;106110;1279;24423;-81
2022/05/25 07:37:21;;;;;;;26.40;20.90;;;;;;;19.78;76.54;98032.75;106486;1278;139585;-81
2022/05/25 07:40:02;;;;;;;30.30;21.30;;;;;;;19.84;76.70;98025.69;106677;1277;22626;-81
2022/05/25 07:42:31;;;;;;;32.20;22.90;;;;;;;19.89;76.86;98022.67;107643;1278;22352;-81
2022/05/25 07:45:12;;;;;;;26.80;22.40;;;;;;;19.89;76.31;98014.67;106500;1279;137511;-81
2022/05/25 07:47:39;;;;;;;27.80;23.30;;;;;;;19.86;76.00;98014.23;106572;1277;22560;-80
2022/05/25 07:50:16;;;;;;;31.90;23.10;;;;;;;19.83;75.46;98017.36;106740;1278;138119;-80
2022/05/25 07:52:46;;;;;;;29.20;23.10;;;;;;;19.82;75.96;98024.30;106351;1279;23396;-80
2022/05/25 07:55:14;;;;;;;28.80;22.70;;;;;;;19.85;76.15;98021.73;106102;1279;138042;-80
2022/05/25 07:57:41;;;;;;;27.90;22.60;;;;;;;19.89;75.86;98019.42;106441;1277;22551;-82
2022/05/25 08:00:25;;;;;;;27.60;23.90;;;;;;;19.90;75.54;98027.23;106356;1277;22565;-80
2022/05/25 08:08:20;;;;;;;28.10;23.40;;;;;;;19.96;75.29;98031.78;106308;1277;137576;-87
2022/05/25 08:11:10;;;;;;;25.10;21.60;;;;;;;20.00;75.64;98031.64;106240;1277;22617;-86
2022/05/25 08:13:56;;;;;;;29.10;21.20;;;;;;;20.04;75.96;98025.55;105973;1277;140009;-83
2022/05/25 08:16:24;;;;;;;31.30;23.20;;;;;;;20.11;75.83;98024.08;106262;1276;22584;-77
2022/05/25 08:18:51;;;;;;;30.10;22.80;;;;;;;20.16;76.03;98031.09;106773;1276;138053;-81
2022/05/25 08:21:20;;;;;;;28.70;22.80;;;;;;;20.15;75.03;98028.52;106643;1276;22636;-87
2022/05/25 08:23:47;;;;;;;30.50;24.40;;;;;;;20.10;74.88;98034.14;106480;1276;26236;-83
2022/05/25 08:26:14;;;;;;;28.40;23.50;;;;;;;20.04;74.87;98038.91;106216;1277;137755;-92
2022/05/25 08:28:43;;;;;;;29.20;23.30;;;;;;;19.99;75.54;98041.31;106684;1277;22530;-87
2022/05/25 08:31:13;;;;;;;26.50;21.00;;;;;;;19.93;75.21;98041.77;106498;1277;138453;-80
2022/05/25 08:33:43;;;;;;;27.10;22.10;;;;;;;19.86;75.02;98040.77;106792;1276;22695;-81
2022/05/25 08:36:43;;;;;;;27.10;21.10;;;;;;;19.78;75.24;98037.67;106123;1276;22639;-80
2022/05/25 08:39:15;;;;;;;28.00;21.90;;;;;;;19.75;75.39;98036.27;106593;1276;137337;-78
2022/05/25 08:41:44;;;;;;;31.60;21.60;;;;;;;19.76;75.38;98040.55;107230;1276;22577;-82
2022/05/25 08:44:14;;;;;;;27.90;23.00;;;;;;;19.75;75.04;98044.77;106436;1276;137524;-83
2022/05/25 08:46:42;;;;;;;26.60;22.50;;;;;;;19.78;75.23;98046.40;105917;1277;22731;-83
2022/05/25 08:49:15;;;;;;;25.50;22.60;;;;;;;19.79;75.22;98049.59;106097;1277;138155;-80
2022/05/25 08:51:57;;;;;;;31.50;23.10;;;;;;;19.74;75.29;98054.30;106501;1277;24029;-82
2022/05/25 08:54:42;;;;;;;29.30;23.10;;;;;;;19.66;75.19;98055.90;106839;1276;23395;-79
2022/05/25 08:57:20;;;;;;;29.00;23.50;;;;;;;19.62;75.30;98052.80;106403;1276;138340;-82
2022/05/25 09:00:02;;;;;;;31.60;23.50;;;;;;;19.57;75.23;98053.35;106443;1277;22590;-83
2022/05/25 09:02:42;;;;;;;;;;;;;;;19.48;75.39;98050.04;106402;1276;138203;-82
2022/05/25 09:05:24;;;;;;;28.30;21.70;;;;;;;19.44;75.57;98049.27;107230;1276;24054;-82
2022/05/25 09:12:15;;;;;;;33.20;23.50;;;;;;;19.65;76.10;98044.92;106379;1277;22694;-82
2022/05/25 09:14:58;;;;;;;32.50;22.60;;;;;;;19.69;75.75;98040.41;105988;1277;138154;-82
2022/05/25 09:17:56;;;;;;;28.80;20.60;;;;;;;19.71;75.64;98047.15;106647;1276;22560;-83
2022/05/25 09:20:39;;;;;;;29.10;22.60;;;;;;;19.61;75.13;98049.35;106129;1279;137844;-84
2022/05/25 09:23:23;;;;;;;30.50;24.10;;;;;;;19.53;75.29;98053.36;106529;1279;22562;-82
2022/05/25 09:25:57;;;;;;;26.80;23.10;;;;;;;19.41;75.06;98057.85;107090;1276;137662;-83
2022/05/25 09:28:47;;;;;;;30.10;23.00;;;;;;;19.22;75.56;98062.14;106894;1277;23919;-83
2022/05/25 09:31:21;;;;;;;25.80;21.50;;;;;;;19.02;76.08;98065.76;106374;1277;138376;-83
2022/05/25 09:34:08;;;;;;;30.70;23.00;;;;;;;18.89;76.77;98062.66;106448;1280;22551;-84
2022/05/25 09:37:08;;;;;;;27.20;22.70;;;;;;;18.86;77.12;98064.43;106399;1277;23344;-84
2022/05/25 09:39:41;;;;;;;30.00;24.20;;;;;;;18.79;77.59;98066.27;106721;1278;30334;-83
2022/05/25 09:42:15;;;;;;;33.60;25.40;;;;;;;18.78;77.92;98057.51;106927;1276;24293;-82
2022/05/25 09:44:52;;;;;;;27.20;22.80;;;;;;;18.77;78.24;98058.64;106059;1276;138262;-83
2022/05/25 09:47:42;;;;;;;31.10;24.00;;;;;;;18.74;78.07;98066.89;106560;1278;24442;-84
2022/05/25 09:50:33;;;;;;;22.80;19.80;;;;;;;18.72;78.12;98067.70;106569;1277;137917;-84
2022/05/25 09:53:04;;;;;;;30.80;25.60;;;;;;;18.73;78.03;98068.17;106234;1277;22670;-84
2022/05/25 09:55:57;;;;;;;31.80;24.00;;;;;;;18.73;78.20;98067.55;106704;1277;138072;-84
2022/05/25 09:58:43;;;;;;;32.10;24.50;;;;;;;18.74;78.33;98063.23;106785;1276;22614;-84
2022/05/25 10:01:27;;;;;;;28.80;23.60;;;;;;;18.71;78.08;98060.25;106399;1279;22587;-84
2022/05/25 10:03:55;;;;;;;28.50;24.30;;;;;;;18.69;78.10;98060.86;106346;1279;138474;-84
2022/05/25 10:06:25;;;;;;;24.30;21.50;;;;;;;18.68;78.19;98058.62;106216;1279;22720;-85
2022/05/25 10:09:19;;;;;;;32.80;24.50;;;;;;;18.66;78.57;98062.58;106088;1279;138083;-84
2022/05/25 10:11:46;;;;;;;28.40;22.00;;;;;;;18.61;78.25;98063.63;106395;1279;22538;-86
2022/05/25 10:14:29;;;;;;;30.60;25.30;;;;;;;18.57;78.04;98064.23;106146;1278;138710;-85
2022/05/25 10:17:29;;;;;;;34.60;24.60;;;;;;;18.51;78.00;98062.16;106385;1280;23386;-85
2022/05/25 10:19:57;;;;;;;27.80;22.30;;;;;;;18.45;78.22;98063.40;106763;1278;137687;-85
2022/05/25 10:22:46;;;;;;;26.80;21.00;;;;;;;18.38;78.14;98066.16;106041;1279;25448;-85
2022/05/25 10:25:25;;;;;;;31.20;22.70;;;;;;;18.35;78.46;98066.89;106355;1279;22790;-86
2022/05/25 10:27:54;;;;;;;26.30;23.30;;;;;;;18.34;78.71;98071.55;106442;1279;137837;-85
2022/05/25 10:36:47;;;;;;;24.30;19.50;;;;;;;18.17;79.29;98082.55;106379;1280;22529;-86
2022/05/25 10:39:28;;;;;;;24.30;19.10;;;;;;;18.08;79.35;98080.79;106675;1279;138259;-87
2022/05/25 10:42:04;;;;;;;27.00;23.40;;;;;;;18.03;79.85;98082.93;106582;1279;22548;-85
2022/05/25 10:45:00;;;;;;;24.30;17.80;;;;;;;17.96;80.49;98088.83;106534;1279;137423;-86
2022/05/25 10:47:50;;;;;;;3.70;3.40;;;;;;;17.55;74.53;98096.43;106341;1279;24275;-86
2022/05/25 10:50:26;;;;;;;4.30;2.60;;;;;;;16.71;72.43;98104.72;106183;1279;137981;-91
2022/05/25 10:52:59;;;;;;;4.20;3.10;;;;;;;15.96;73.51;98112.67;106282;1280;22886;-84
2022/05/25 10:55:37;;;;;;;3.00;2.70;;;;;;;15.40;74.79;98119.63;106480;1280;23118;-90
2022/05/25 10:58:16;;;;;;;3.50;2.70;;;;;;;14.93;76.27;98120.77;106598;1277;137806;-87
2022/05/25 11:01:07;;;;;;;3.80;3.40;;;;;;;14.56;77.18;98123.88;106373;1277;24218;-85
2022/05/25 11:03:56;;;;;;;;;;;;;;;14.28;78.44;98131.27;106447;1277;137474;-87
2022/05/25 11:11:04;;;;;;;3.40;2.40;;;;;;;13.80;79.22;98133.64;106495;1277;25364;-88
2022/05/25 11:14:02;;;;;;;4.00;2.90;;;;;;;13.62;79.63;98132.65;106437;1277;24262;-90
2022/05/25 11:16:53;;;;;;;3.70;2.50;;;;;;;13.50;80.02;98134.50;106136;1277;138044;-89
2022/05/25 11:19:39;;;;;;;3.60;2.40;;;;;;;13.37;80.30;98134.70;106535;1277;24280;-86
2022/05/25 11:22:20;;;;;;;5.40;3.00;;;;;;;13.30;80.98;98135.21;105945;1277;137433;-86
2022/05/25 11:25:15;;;;;;;3.90;2.60;;;;;;;13.23;81.72;98146.25;106316;1280;22590;-82
2022/05/25 11:28:07;;;;;;;3.30;2.20;;;;;;;13.15;82.40;98151.14;106154;1280;138020;-80
2022/05/25 11:31:12;;;;;;;2.60;2.40;;;;;;;13.05;82.71;98158.81;106274;1278;24229;-79
2022/05/25 11:33:48;;;;;;;3.30;2.40;;;;;;;13.00;83.24;98150.86;106432;1277;137802;-79
2022/05/25 11:36:22;;;;;;;2.70;2.50;;;;;;;12.99;83.73;98144.76;106354;1277;24312;-79
2022/05/25 11:39:05;;;;;;;4.40;3.10;;;;;;;12.99;84.05;98141.91;106304;1277;138003;-81
2022/05/25 11:42:03;;;;;;;3.60;3.30;;;;;;;13.03;84.69;98135.41;106673;1277;26840;-80
2022/05/25 11:45:04;;;;;;;5.20;3.20;;;;;;;13.04;84.76;98138.54;106169;1278;137875;-82
2022/05/25 11:47:56;;;;;;;4.00;3.70;;;;;;;13.04;84.99;98150.12;106118;1280;23175;-80
2022/05/25 11:51:26;;;;;;;3.60;3.20;;;;;;;13.04;85.47;98157.84;106138;1279;138052;-81
2022/05/25 11:54:13;;;;;;;3.10;2.80;;;;;;;13.07;85.50;98160.41;106227;1277;22545;-80
2022/05/25 11:57:11;;;;;;;4.80;3.20;;;;;;;13.10;85.84;98165.30;106278;1277;137877;-80
2022/05/25 11:59:51;;;;;;;4.40;3.10;;;;;;;13.11;85.87;98182.68;106435;1277;22586;-80
2022/05/25 12:02:46;;;;;;;6.00;3.60;;;;;;;13.14;86.32;98186.29;106286;1276;138096;-80
2022/05/25 12:06:04;;;;;;;4.20;3.90;;;;;;;13.20;86.82;98193.80;106159;1278;30374;-80
2022/05/25 12:08:43;;;;;;;4.10;3.40;;;;;;;13.20;86.78;98188.61;105949;1277;137671;-80
2022/05/25 12:11:17;;;;;;;4.90;3.70;;;;;;;13.20;86.72;98190.54;106422;1277;23916;-80
2022/05/25 12:13:53;;;;;;;3.80;3.40;;;;;;;13.24;87.05;98195.91;106231;1277;22547;-80
2022/05/25 12:16:30;;;;;;;4.30;3.10;;;;;;;13.31;87.11;98203.92;106142;1277;138329;-80
2022/05/25 12:18:57;;;;;;;3.70;3.30;;;;;;;13.30;86.55;98204.35;106158;1278;22715;-80
2022/05/25 12:21:32;;;;;;;4.50;3.10;;;;;;;13.30;86.41;98207.19;106150;1278;137418;-80